createdAt,value
2023-03-06T06:03:09.213Z,23.70
2023-03-06T06:04:10.118Z,23.66
2023-03-06T06:05:12.553Z,23.74
2023-03-06T06:06:10.160Z,23.76
2023-03-06T06:07:10.141Z,23.73
2023-03-06T06:08:10.144Z,23.73
2023-03-06T06:09:11.741Z,23.68
2023-03-06T06:10:10.137Z,23.77
2023-03-06T06:11:09.110Z,23.76
2023-03-06T06:12:10.114Z,23.80
2023-03-06T06:13:10.142Z,23.77
2023-03-06T06:14:10.097Z,23.73
2023-03-06T06:15:10.104Z,23.77
2023-03-06T06:16:10.158Z,23.74
2023-03-06T06:17:10.084Z,23.77
2023-03-06T06:18:10.084Z,23.76
2023-03-06T06:19:10.107Z,23.79
2023-03-06T06:20:10.058Z,23.74
2023-03-06T06:21:10.064Z,23.80
2023-03-06T06:22:10.053Z,23.74
2023-03-06T06:23:09.055Z,23.74
2023-03-06T06:24:10.032Z,23.73
2023-03-06T06:25:10.033Z,23.74
2023-03-06T06:26:09.030Z,23.76
2023-03-06T06:27:09.035Z,23.76
2023-03-06T06:28:10.027Z,23.74
2023-03-06T06:29:10.008Z,23.77
2023-03-06T06:30:09.071Z,23.76
2023-03-06T06:31:10.156Z,23.79
2023-03-06T06:32:10.214Z,23.77
2023-03-06T06:33:10.232Z,23.76
2023-03-06T06:34:10.276Z,23.76
2023-03-06T06:35:10.363Z,23.79
2023-03-06T06:36:10.389Z,23.71
2023-03-06T06:37:10.437Z,23.80
2023-03-06T06:38:10.505Z,23.76
2023-03-06T06:39:10.537Z,23.77
2023-03-06T06:40:10.597Z,23.76
2023-03-06T06:41:38.927Z,23.81
2023-03-06T06:42:29.891Z,23.77
2023-03-06T06:43:10.644Z,23.76
2023-03-06T06:44:10.626Z,23.80
2023-03-06T06:45:10.618Z,23.79
2023-03-06T06:46:44.644Z,23.79
2023-03-06T06:47:22.959Z,23.79
2023-03-06T06:48:10.693Z,23.82
2023-03-06T06:49:09.656Z,23.77
2023-03-06T06:50:10.595Z,23.81
2023-03-06T06:51:10.616Z,23.82
2023-03-06T06:52:09.578Z,23.81
2023-03-06T06:53:10.571Z,23.82
2023-03-06T06:54:10.543Z,23.81
2023-03-06T06:55:10.538Z,23.81
2023-03-06T06:56:10.528Z,23.78
2023-03-06T06:57:10.540Z,23.79
2023-03-06T06:58:09.526Z,23.82
2023-03-06T06:59:16.576Z,23.82
2023-03-06T07:00:10.507Z,23.79
2023-03-06T07:01:10.525Z,23.79
2023-03-06T07:02:10.510Z,23.76
2023-03-06T07:03:09.495Z,24.12
2023-03-06T07:04:10.590Z,24.54
2023-03-06T07:05:10.480Z,24.53
2023-03-06T07:06:10.473Z,24.38
2023-03-06T07:07:09.479Z,24.66
2023-03-06T07:08:10.466Z,24.71
2023-03-06T07:09:09.456Z,24.91
2023-03-06T07:10:09.455Z,24.82
2023-03-06T07:11:10.441Z,25.28
2023-03-06T07:12:10.441Z,25.08
2023-03-06T07:13:10.437Z,25.28
2023-03-06T07:14:10.447Z,25.02
2023-03-06T07:15:10.428Z,25.12
2023-03-06T07:16:10.454Z,25.38
2023-03-06T07:17:10.393Z,25.39
2023-03-06T07:18:09.421Z,25.83
2023-03-06T07:19:10.380Z,25.60
2023-03-06T07:20:10.402Z,25.41
2023-03-06T07:21:10.401Z,25.46
2023-03-06T07:22:10.378Z,25.60
2023-03-06T07:23:09.393Z,25.55
2023-03-06T07:24:10.341Z,25.54
2023-03-06T07:25:09.344Z,25.73
2023-03-06T07:26:10.327Z,25.64
2023-03-06T07:27:10.348Z,25.98
2023-03-06T07:28:10.397Z,25.98
2023-03-06T07:29:09.316Z,26.15
2023-03-06T07:30:10.323Z,26.15
2023-03-06T07:31:10.342Z,26.11
2023-03-06T07:32:10.315Z,26.22
2023-03-06T07:33:10.313Z,26.32
2023-03-06T07:34:10.274Z,26.41
2023-03-06T07:35:19.644Z,26.35
2023-03-06T07:36:12.729Z,26.37
2023-03-06T07:37:10.260Z,26.42
2023-03-06T07:38:10.330Z,26.64
2023-03-06T07:39:10.303Z,26.61
2023-03-06T07:40:10.235Z,26.69
2023-03-06T07:42:10.237Z,26.77
2023-03-06T07:43:19.112Z,26.82
2023-03-06T07:44:10.214Z,26.98
2023-03-06T07:45:10.235Z,27.09
2023-03-06T07:46:10.261Z,27.40
2023-03-06T07:47:10.202Z,26.77
2023-03-06T07:48:10.187Z,27.31
2023-03-06T07:49:10.179Z,27.19
2023-03-06T07:50:09.179Z,26.90
2023-03-06T07:51:10.168Z,27.43
2023-03-06T07:57:10.135Z,27.26
2023-03-06T07:58:09.374Z,27.38
2023-03-06T08:03:09.160Z,27.60
2023-03-06T08:07:10.045Z,27.89
2023-03-06T08:08:10.055Z,27.97
2023-03-06T08:10:10.024Z,27.97
2023-03-06T08:11:10.058Z,27.99
2023-03-06T08:12:10.009Z,28.14
2023-03-06T08:14:09.990Z,28.13
2023-03-06T08:21:09.078Z,28.04
2023-03-06T08:22:10.101Z,28.30
2023-03-06T08:25:09.199Z,28.50
2023-03-06T08:29:10.273Z,28.49
2023-03-06T08:32:10.345Z,28.88
2023-03-06T08:33:10.370Z,29.23
2023-03-06T08:38:09.477Z,29.58
2023-03-06T08:39:09.505Z,29.55
2023-03-06T08:49:09.692Z,29.69
2023-03-06T08:55:09.955Z,29.69
2023-03-06T09:02:10.420Z,29.34
2023-03-06T09:41:12.384Z,28.47
2023-03-06T09:42:12.386Z,28.40
2023-03-06T09:45:12.371Z,28.38
2023-03-06T10:42:11.452Z,27.46
2023-03-06T11:59:12.582Z,26.68
2023-03-06T12:10:11.568Z,26.66
2023-03-06T12:17:12.545Z,26.55
2023-03-06T12:29:12.521Z,26.46
2023-03-06T12:36:11.481Z,26.39
2023-03-06T12:41:12.476Z,26.41
2023-03-06T12:42:22.624Z,26.39
2023-03-06T12:46:12.532Z,26.31
2023-03-06T12:49:17.801Z,26.28
2023-03-06T12:56:12.397Z,26.25
2023-03-06T13:00:12.369Z,26.17
2023-03-06T13:08:12.317Z,26.13
2023-03-06T13:09:12.339Z,26.13
2023-03-06T13:12:12.287Z,26.11
2023-03-06T13:14:12.258Z,26.07
2023-03-06T14:11:11.873Z,25.41
2023-03-06T14:14:11.854Z,25.42
2023-03-06T14:16:11.975Z,25.43
2023-03-06T14:19:11.949Z,25.43
2023-03-06T14:22:11.815Z,25.41
2023-03-06T14:23:11.801Z,25.49
2023-03-06T14:26:11.798Z,25.48
2023-03-06T14:34:10.753Z,25.49
2023-03-06T14:47:11.769Z,25.00
2023-03-06T14:57:12.051Z,24.33
2023-03-06T14:59:11.117Z,24.19
2023-03-06T15:03:11.250Z,24.07
2023-03-06T15:04:12.244Z,24.02
2023-03-06T15:05:12.313Z,23.93
2023-03-06T15:09:12.420Z,23.71
2023-03-06T15:11:12.480Z,23.71
2023-03-06T15:13:12.535Z,23.55
2023-03-06T15:19:11.782Z,23.23
2023-03-06T15:22:12.925Z,22.72
2023-03-06T15:26:12.183Z,23.22
2023-03-06T15:27:12.233Z,23.44
2023-03-06T15:28:13.279Z,23.44
2023-03-06T15:30:13.406Z,23.58
2023-03-06T15:44:13.885Z,24.12
2023-03-06T15:45:13.906Z,24.16
2023-03-06T15:49:14.020Z,24.18
2023-03-06T16:28:15.374Z,24.61
2023-03-06T16:29:15.383Z,24.60
